Time;durP1;ratioP1;P1;durP2;ratioP2;P2;SDS_P1;SDS_P2;PMS_P1;PMS_P2;Temp;Humidity;BMP_temperature;BMP_pressure;BME280_temperature;BME280_humidity;BME280_pressure;Samples;Min_cycle;Max_cycle;Signal;HPM_P1;HPM_P2
2022/09/20 00:01:19;;;;;;;7.18;1.70;;;9.60;99.90;;;;;;5099550;28;20504;-72
2022/09/20 00:03:46;;;;;;;7.38;1.80;;;9.60;99.90;;;;;;5106483;28;20051;-72
2022/09/20 00:06:15;;;;;;;10.13;2.17;;;9.50;99.90;;;;;;5104642;28;20135;-73
2022/09/20 00:08:41;;;;;;;7.28;1.70;;;9.60;99.90;;;;;;5104790;28;20044;-74
2022/09/20 00:11:14;;;;;;;12.25;2.22;;;9.50;99.90;;;;;;5106129;28;20052;-72
2022/09/20 00:13:42;;;;;;;5.97;1.80;;;9.50;99.90;;;;;;5104985;28;20056;-72
2022/09/20 00:16:11;;;;;;;13.77;1.90;;;9.40;99.90;;;;;;5105822;28;20067;-72
2022/09/20 00:18:37;;;;;;;8.77;1.70;;;9.40;99.90;;;;;;5106004;28;20059;-72
2022/09/20 00:21:04;;;;;;;6.50;2.25;;;9.20;99.90;;;;;;5107091;28;20056;-72
2022/09/20 00:23:30;;;;;;;3.55;1.80;;;9.10;99.90;;;;;;5105248;28;20117;-72
2022/09/20 00:26:01;;;;;;;3.45;1.42;;;9.10;99.90;;;;;;5104498;28;20135;-72
2022/09/20 00:28:28;;;;;;;4.55;1.52;;;8.90;99.90;;;;;;5106073;28;20373;-72
2022/09/20 00:30:55;;;;;;;6.28;1.60;;;8.90;99.90;;;;;;5106695;28;20044;-72
2022/09/20 00:33:22;;;;;;;8.40;1.60;;;8.90;99.90;;;;;;5104203;28;20048;-72
2022/09/20 00:35:49;;;;;;;8.80;2.75;;;8.80;99.90;;;;;;5104756;28;20373;-72
2022/09/20 00:38:15;;;;;;;4.00;1.40;;;8.70;99.90;;;;;;5104844;28;20036;-72
2022/09/20 00:40:42;;;;;;;4.35;1.40;;;8.70;99.90;;;;;;5086064;28;20051;-72
2022/09/20 00:43:17;;;;;;;8.35;1.73;;;8.60;99.90;;;;;;5104550;28;20101;-72
2022/09/20 00:45:46;;;;;;;6.07;1.77;;;8.70;99.90;;;;;;5099383;28;20049;-72
2022/09/20 00:48:23;;;;;;;5.97;2.03;;;8.70;99.90;;;;;;5105691;28;20050;-72
2022/09/20 00:50:55;;;;;;;6.00;1.77;;;8.80;99.90;;;;;;5105193;28;20055;-72
2022/09/20 00:53:35;;;;;;;7.32;1.65;;;8.80;99.90;;;;;;5103098;28;20051;-72
2022/09/20 00:56:08;;;;;;;5.22;1.70;;;8.90;99.90;;;;;;5103776;28;20040;-72
2022/09/20 00:58:40;;;;;;;8.15;1.73;;;8.90;99.90;;;;;;5103842;28;20051;-72
2022/09/20 01:01:06;;;;;;;6.22;1.50;;;9.00;99.90;;;;;;5104063;28;20056;-72
2022/09/20 01:03:35;;;;;;;6.00;1.55;;;9.00;99.90;;;;;;5103509;28;20062;-72
2022/09/20 01:06:05;;;;;;;7.95;1.73;;;8.90;99.90;;;;;;5103941;28;20056;-72
2022/09/20 01:08:34;;;;;;;4.57;1.30;;;8.90;99.90;;;;;;5102897;28;20127;-72
2022/09/20 01:11:00;;;;;;;6.80;1.27;;;8.90;99.90;;;;;;5103277;28;20067;-72
2022/09/20 01:13:25;;;;;;;5.53;1.77;;;8.80;99.90;;;;;;5099707;28;20099;-72
2022/09/20 01:15:53;;;;;;;2.90;1.25;;;8.70;99.90;;;;;;5103874;28;20036;-72
2022/09/20 01:18:20;;;;;;;9.02;1.63;;;8.60;99.90;;;;;;5103720;28;20048;-72
2022/09/20 01:20:47;;;;;;;3.72;1.55;;;8.50;99.90;;;;;;5086354;28;20040;-72
2022/09/20 01:23:48;;;;;;;5.70;2.03;;;8.40;99.90;;;;;;5105679;28;20032;-72
2022/09/20 01:26:36;;;;;;;6.03;1.20;;;8.40;99.90;;;;;;5103084;28;20048;-72
2022/09/20 01:29:08;;;;;;;6.07;1.35;;;8.30;99.90;;;;;;5104051;28;20533;-72
2022/09/20 01:31:39;;;;;;;6.60;1.85;;;8.30;99.90;;;;;;5103570;28;20047;-72
2022/09/20 01:34:13;;;;;;;12.38;2.38;;;8.30;99.90;;;;;;5104509;28;20047;-72
2022/09/20 01:36:49;;;;;;;8.35;1.88;;;8.30;99.90;;;;;;5104842;28;20052;-72
2022/09/20 01:39:17;;;;;;;5.78;1.77;;;8.40;99.90;;;;;;5105794;28;20078;-72
2022/09/20 01:42:08;;;;;;;8.50;1.90;;;8.40;99.90;;;;;;5105406;28;20040;-72
2022/09/20 01:44:53;;;;;;;5.00;1.80;;;8.30;99.90;;;;;;5104053;28;20044;-72
2022/09/20 01:47:40;;;;;;;5.72;1.60;;;8.20;99.90;;;;;;5102809;28;20131;-72
2022/09/20 01:50:29;;;;;;;3.75;1.38;;;8.20;99.90;;;;;;5102829;28;20044;-72
2022/09/20 01:53:35;;;;;;;4.47;2.13;;;8.10;99.90;;;;;;5103722;28;20052;-72
2022/09/20 01:56:00;;;;;;;5.20;1.73;;;7.90;99.90;;;;;;5098811;28;20036;-72
2022/09/20 01:58:46;;;;;;;4.43;1.98;;;7.90;99.90;;;;;;5102808;28;20036;-72
2022/09/20 02:01:33;;;;;;;5.90;1.50;;;7.80;99.90;;;;;;5102482;28;20862;-72
2022/09/20 02:04:11;;;;;;;9.77;1.90;;;7.70;99.90;;;;;;5098737;28;20129;-72
2022/09/20 02:06:52;;;;;;;7.25;1.67;;;7.80;99.90;;;;;;5104760;28;20056;-72
2022/09/20 02:09:40;;;;;;;12.18;2.15;;;7.80;99.90;;;;;;5104841;28;20108;-72
2022/09/20 02:12:27;;;;;;;10.40;2.80;;;7.80;99.90;;;;;;5104504;28;20036;-72
2022/09/20 02:15:30;;;;;;;5.97;2.00;;;7.90;99.90;;;;;;5099670;28;20096;-72
2022/09/20 02:18:08;;;;;;;6.00;1.85;;;8.00;99.90;;;;;;5103958;28;20036;-72
2022/09/20 02:21:04;;;;;;;7.50;1.70;;;7.90;99.90;;;;;;5103947;28;20044;-72
2022/09/20 02:23:54;;;;;;;8.55;1.80;;;7.90;99.90;;;;;;5104118;28;20052;-72
2022/09/20 02:26:39;;;;;;;;;;;7.80;99.90;;;;;;5102143;28;20560;-72
2022/09/20 02:29:34;;;;;;;8.18;1.80;;;7.70;99.90;;;;;;5087426;28;19920;-72
2022/09/20 02:32:02;;;;;;;7.68;1.58;;;7.70;99.90;;;;;;5102127;28;20541;-72
2022/09/20 02:34:50;;;;;;;8.05;2.83;;;7.70;99.90;;;;;;5103407;28;20066;-72
2022/09/20 02:37:43;;;;;;;8.10;2.53;;;7.80;99.90;;;;;;5102684;28;20068;-72
2022/09/20 02:40:49;;;;;;;12.73;2.60;;;7.80;99.90;;;;;;5103074;28;20048;-72
2022/09/20 02:43:30;;;;;;;6.15;2.30;;;7.90;99.90;;;;;;5102021;28;20040;-72
2022/09/20 02:46:14;;;;;;;6.38;1.70;;;7.80;99.90;;;;;;5097998;28;20070;-72
2022/09/20 02:48:55;;;;;;;5.30;1.73;;;7.90;99.90;;;;;;5074938;28;20052;-72
2022/09/20 02:51:43;;;;;;;7.47;1.90;;;7.90;99.90;;;;;;5098789;28;20047;-72
2022/09/20 02:54:32;;;;;;;7.38;2.03;;;7.90;99.90;;;;;;5103687;28;20036;-72
2022/09/20 02:57:09;;;;;;;5.05;1.85;;;7.70;99.90;;;;;;5101521;28;20044;-72
2022/09/20 02:59:45;;;;;;;6.13;1.70;;;7.70;99.90;;;;;;5102268;28;20040;-72
2022/09/20 03:02:25;;;;;;;12.82;2.38;;;7.70;99.90;;;;;;5123107;28;20394;-72
2022/09/20 03:05:17;;;;;;;7.28;1.75;;;7.60;99.90;;;;;;5100746;28;20123;-72
2022/09/20 03:07:57;;;;;;;9.75;1.88;;;7.70;99.90;;;;;;5101824;28;20048;-72
2022/09/20 03:10:27;;;;;;;6.55;2.45;;;7.60;99.90;;;;;;5102353;28;20048;-72
2022/09/20 03:13:13;;;;;;;4.82;2.50;;;7.60;99.90;;;;;;5101315;28;20036;-72
2022/09/20 03:16:13;;;;;;;5.97;1.77;;;7.60;99.90;;;;;;5102430;28;20067;-72
2022/09/20 03:19:03;;;;;;;5.18;1.88;;;7.60;99.90;;;;;;5100330;28;20052;-72
2022/09/20 03:21:42;;;;;;;7.65;2.38;;;7.60;99.90;;;;;;5102651;28;20067;-72
2022/09/20 03:24:39;;;;;;;9.52;2.20;;;7.60;99.90;;;;;;5102045;28;20078;-72
2022/09/20 03:27:40;;;;;;;7.82;1.98;;;7.60;99.90;;;;;;5101944;28;20069;-72
2022/09/20 03:30:35;;;;;;;5.80;1.60;;;7.50;99.90;;;;;;5095785;28;20506;-72
2022/09/20 03:33:37;;;;;;;10.77;2.30;;;7.40;99.90;;;;;;5100810;28;20054;-72
2022/09/20 03:36:12;;;;;;;6.78;1.88;;;7.50;99.90;;;;;;5056269;28;20128;-72
2022/09/20 03:38:50;;;;;;;5.63;2.20;;;7.50;99.90;;;;;;5053523;28;20049;-72
2022/09/20 03:41:43;;;;;;;9.70;2.40;;;7.60;99.90;;;;;;5047360;28;20056;-72
2022/09/20 03:44:24;;;;;;;5.10;1.73;;;7.60;99.90;;;;;;5051942;28;20079;-71
2022/09/20 03:47:02;;;;;;;6.90;2.10;;;7.60;99.90;;;;;;5057280;28;20083;-71
2022/09/20 03:50:06;;;;;;;7.53;2.05;;;7.60;99.90;;;;;;5054757;28;20041;-72
2022/09/20 03:52:56;;;;;;;7.28;1.90;;;7.60;99.90;;;;;;5045057;28;20057;-71
2022/09/20 03:55:24;;;;;;;8.18;2.20;;;7.50;99.90;;;;;;5044011;28;20097;-71
2022/09/20 03:58:11;;;;;;;5.95;2.00;;;7.60;99.90;;;;;;5034167;28;20088;-72
2022/09/20 04:01:07;;;;;;;5.65;2.08;;;7.70;99.90;;;;;;5041806;28;20188;-72
2022/09/20 04:04:18;;;;;;;10.07;2.60;;;7.80;99.90;;;;;;5064494;28;20041;-71
2022/09/20 04:07:04;;;;;;;7.68;2.72;;;7.80;99.90;;;;;;5043528;28;20075;-72
2022/09/20 04:10:07;;;;;;;7.88;2.03;;;8.00;99.90;;;;;;5041136;28;20052;-72
2022/09/20 04:12:32;;;;;;;8.05;2.15;;;8.00;99.90;;;;;;5091775;28;20056;-72
2022/09/20 04:15:11;;;;;;;9.55;2.30;;;8.00;99.90;;;;;;5107320;28;20048;-71
2022/09/20 04:17:59;;;;;;;6.72;1.90;;;8.10;99.90;;;;;;5105773;28;20073;-72
2022/09/20 04:20:51;;;;;;;11.77;2.85;;;8.10;99.90;;;;;;5104980;28;20476;-71
2022/09/20 04:23:33;;;;;;;7.88;2.25;;;8.20;99.90;;;;;;5102030;28;20059;-71
2022/09/20 04:26:01;;;;;;;12.60;2.63;;;8.20;99.90;;;;;;5105744;28;20050;-71
2022/09/20 04:28:46;;;;;;;9.02;3.30;;;8.20;99.90;;;;;;5107544;28;20043;-71
2022/09/20 04:31:44;;;;;;;7.68;2.40;;;8.20;99.90;;;;;;5104153;28;20040;-72
2022/09/20 04:36:27;;;;;;;13.15;2.70;;;8.30;99.90;;;;;;5101039;28;20056;-72
2022/09/20 04:37:41;;;;;;;6.82;1.70;;;8.20;99.90;;;;;;5100647;28;20059;-72
2022/09/20 04:40:19;;;;;;;6.70;1.70;;;8.10;99.90;;;;;;5102262;28;20047;-74
2022/09/20 04:43:22;;;;;;;8.52;1.83;;;8.00;99.90;;;;;;5101733;28;20062;-74
2022/09/20 04:46:03;;;;;;;7.13;3.10;;;8.00;99.90;;;;;;5079027;28;20044;-78
2022/09/20 04:48:55;;;;;;;6.53;2.22;;;8.00;99.90;;;;;;5063463;28;20063;-73
2022/09/20 04:51:50;;;;;;;6.18;2.40;;;8.00;99.90;;;;;;5057592;28;20415;-73
2022/09/20 04:54:37;;;;;;;6.07;1.83;;;8.00;99.90;;;;;;5030097;28;20057;-73
2022/09/20 04:57:24;;;;;;;6.88;2.47;;;8.00;99.90;;;;;;5024224;28;20037;-71
2022/09/20 05:00:00;;;;;;;6.72;2.90;;;8.00;99.90;;;;;;5030166;28;20144;-70
2022/09/20 05:02:29;;;;;;;7.28;2.40;;;8.00;99.90;;;;;;5038033;28;20041;-70
2022/09/20 05:05:06;;;;;;;7.28;2.17;;;8.10;99.90;;;;;;5031528;28;20071;-70
2022/09/20 05:08:07;;;;;;;6.10;2.35;;;8.10;99.90;;;;;;5054550;28;20041;-71
2022/09/20 05:10:54;;;;;;;6.70;2.20;;;8.10;99.90;;;;;;5028194;28;20040;-71
2022/09/20 05:13:37;;;;;;;6.53;2.28;;;8.20;99.90;;;;;;5026386;28;20045;-71
2022/09/20 05:16:07;;;;;;;7.90;2.33;;;8.20;99.90;;;;;;5040934;28;20040;-71
2022/09/20 05:19:06;;;;;;;11.90;3.08;;;8.30;99.90;;;;;;5041285;28;20045;-70
2022/09/20 05:22:22;;;;;;;8.73;2.63;;;8.30;99.90;;;;;;5034569;28;20076;-72
2022/09/20 05:25:43;;;;;;;6.35;2.50;;;8.50;99.90;;;;;;5007371;28;20562;-71
2022/09/20 05:28:22;;;;;;;9.43;2.60;;;8.50;99.90;;;;;;4976027;28;20072;-73
2022/09/20 05:31:07;;;;;;;7.28;2.80;;;8.60;99.90;;;;;;4962903;28;20051;-70
2022/09/20 05:34:01;;;;;;;6.43;2.80;;;8.70;99.90;;;;;;4966368;28;20063;-70
2022/09/20 05:36:55;;;;;;;8.15;2.90;;;8.70;99.90;;;;;;4960901;28;20739;-70
2022/09/20 05:39:40;;;;;;;10.88;2.60;;;8.60;99.90;;;;;;4968040;28;20129;-69
2022/09/20 05:42:47;;;;;;;8.82;2.97;;;8.70;99.90;;;;;;4973522;28;20042;-69
2022/09/20 05:45:13;;;;;;;9.55;3.15;;;8.80;99.90;;;;;;4967835;28;20047;-69
2022/09/20 05:48:02;;;;;;;11.52;3.33;;;8.80;99.90;;;;;;4965396;28;20058;-70
2022/09/20 05:50:55;;;;;;;6.10;2.55;;;8.90;99.90;;;;;;4966527;28;20063;-70
2022/09/20 05:53:52;;;;;;;6.95;3.10;;;9.00;99.90;;;;;;4948850;28;20058;-71
2022/09/20 05:56:45;;;;;;;9.80;2.83;;;9.00;99.90;;;;;;4974782;28;20039;-70
2022/09/20 05:59:23;;;;;;;9.50;2.75;;;9.10;99.90;;;;;;5001270;28;20046;-72
2022/09/20 06:02:26;;;;;;;7.78;3.00;;;9.20;99.90;;;;;;5004563;28;20289;-71
2022/09/20 06:05:02;;;;;;;7.30;2.67;;;9.30;99.90;;;;;;5060601;28;20105;-70
2022/09/20 06:07:51;;;;;;;6.43;2.63;;;9.40;99.90;;;;;;5074476;28;20085;-71
2022/09/20 06:10:47;;;;;;;7.78;2.53;;;9.50;99.90;;;;;;5061080;28;20048;-71
2022/09/20 06:13:29;;;;;;;7.85;2.78;;;9.60;99.90;;;;;;5103320;28;20040;-71
2022/09/20 06:16:04;;;;;;;7.20;2.10;;;9.80;99.90;;;;;;5081391;28;20060;-71
2022/09/20 06:18:50;;;;;;;5.72;1.92;;;9.90;99.90;;;;;;5073928;28;20570;-71
2022/09/20 06:21:28;;;;;;;5.93;2.13;;;10.00;99.90;;;;;;5094903;28;20055;-71
2022/09/20 06:23:59;;;;;;;6.50;2.72;;;10.00;99.90;;;;;;5090988;28;20116;-71
2022/09/20 06:26:30;;;;;;;4.45;1.88;;;10.10;99.90;;;;;;5105503;28;20488;-71
2022/09/20 06:29:04;;;;;;;6.55;2.10;;;10.10;99.90;;;;;;5087520;28;20055;-70
2022/09/20 06:31:29;;;;;;;8.43;2.10;;;10.20;99.90;;;;;;5094604;28;20048;-71
2022/09/20 06:34:08;;;;;;;7.78;1.88;;;10.30;99.90;;;;;;5087951;28;20047;-71
2022/09/20 06:42:28;;;;;;;6.88;1.85;;;10.40;99.90;;;;;;5093755;28;20044;-70
2022/09/20 06:44:54;;;;;;;5.68;2.03;;;10.40;99.90;;;;;;5067925;28;20051;-70
2022/09/20 06:47:21;;;;;;;6.50;1.90;;;10.40;99.90;;;;;;5080085;28;20044;-70
2022/09/20 06:49:49;;;;;;;6.18;2.17;;;10.40;99.90;;;;;;5089552;28;20056;-70
2022/09/20 06:52:17;;;;;;;7.63;2.35;;;10.40;99.90;;;;;;5094061;28;20051;-70
2022/09/20 06:54:45;;;;;;;5.07;1.83;;;10.50;99.90;;;;;;5066501;28;20052;-70
2022/09/20 06:57:21;;;;;;;6.38;2.13;;;10.60;99.90;;;;;;5093063;28;20097;-70
2022/09/20 06:59:47;;;;;;;5.82;2.05;;;10.50;99.90;;;;;;5086706;28;20048;-69
2022/09/20 07:02:13;;;;;;;7.88;2.17;;;10.60;99.90;;;;;;5093456;28;20048;-70
2022/09/20 07:04:38;;;;;;;7.07;2.08;;;10.50;99.90;;;;;;5070824;28;20692;-71
2022/09/20 07:07:06;;;;;;;5.60;1.58;;;10.40;99.90;;;;;;5076110;28;20079;-71
2022/09/20 07:09:32;;;;;;;7.60;2.00;;;10.40;99.90;;;;;;5063135;28;20101;-71
2022/09/20 07:11:58;;;;;;;8.60;2.20;;;10.40;99.90;;;;;;5090930;28;20048;-71
2022/09/20 07:14:25;;;;;;;4.72;1.80;;;10.50;99.90;;;;;;5101505;28;20043;-71
2022/09/20 07:16:51;;;;;;;7.05;1.80;;;10.60;99.90;;;;;;5098011;28;20135;-71
2022/09/20 07:19:17;;;;;;;9.38;2.63;;;10.60;99.90;;;;;;5089651;28;20139;-71
2022/09/20 07:21:43;;;;;;;7.50;2.40;;;10.80;99.90;;;;;;5110551;28;20036;-71
2022/09/20 07:24:09;;;;;;;7.38;2.38;;;11.00;99.90;;;;;;5095191;27;20059;-71
2022/09/20 07:26:37;;;;;;;6.18;1.70;;;11.20;99.90;;;;;;5097326;28;20099;-70
2022/09/20 07:29:05;;;;;;;9.65;2.10;;;11.40;99.90;;;;;;5091277;28;20043;-70
2022/09/20 07:31:32;;;;;;;5.88;1.80;;;11.50;99.90;;;;;;5096323;28;20051;-71
2022/09/20 07:33:57;;;;;;;8.43;1.92;;;11.70;99.90;;;;;;5086274;28;20036;-70
2022/09/20 07:36:23;;;;;;;7.13;1.77;;;11.70;99.90;;;;;;5066808;28;20069;-70
2022/09/20 07:38:51;;;;;;;6.93;1.38;;;11.90;99.90;;;;;;5089762;28;20040;-71
2022/09/20 07:41:19;;;;;;;3.45;1.27;;;12.00;99.90;;;;;;5101353;28;20111;-70
2022/09/20 07:43:45;;;;;;;5.45;1.42;;;12.20;99.90;;;;;;5087248;28;20443;-71
2022/09/20 07:46:12;;;;;;;5.57;1.30;;;12.30;99.90;;;;;;5098006;28;20051;-71
2022/09/20 07:48:39;;;;;;;5.57;1.30;;;12.40;99.90;;;;;;5075514;28;20064;-72
2022/09/20 07:51:10;;;;;;;3.50;1.63;;;12.50;99.90;;;;;;5097609;28;20116;-70
2022/09/20 07:53:36;;;;;;;3.88;1.23;;;12.70;99.90;;;;;;5090641;28;20047;-70
2022/09/20 07:56:12;;;;;;;6.75;1.27;;;12.80;99.90;;;;;;5094165;28;20057;-71
2022/09/20 07:58:38;;;;;;;6.82;1.25;;;12.90;99.90;;;;;;5094178;28;20040;-71
2022/09/20 08:01:06;;;;;;;4.78;1.30;;;12.90;99.90;;;;;;5106550;28;20082;-70
2022/09/20 08:03:33;;;;;;;5.55;1.35;;;13.00;99.90;;;;;;5096056;28;20055;-70
2022/09/20 08:06:00;;;;;;;6.18;1.00;;;13.10;99.90;;;;;;5079388;28;20055;-70
2022/09/20 08:08:27;;;;;;;2.65;0.85;;;13.10;99.90;;;;;;5093588;28;20040;-70
2022/09/20 08:11:01;;;;;;;4.50;1.00;;;13.00;99.90;;;;;;5071737;28;20047;-70
2022/09/20 08:13:28;;;;;;;3.17;0.80;;;13.00;99.90;;;;;;5092359;28;20060;-70
2022/09/20 08:16:01;;;;;;;5.20;1.05;;;13.00;99.90;;;;;;5080568;28;20099;-70
2022/09/20 08:18:27;;;;;;;5.38;1.00;;;13.00;99.90;;;;;;5093766;28;20043;-70
2022/09/20 08:20:54;;;;;;;2.13;0.98;;;13.00;99.90;;;;;;5068005;28;20044;-70
2022/09/20 08:23:20;;;;;;;3.15;0.90;;;13.00;99.90;;;;;;5094770;28;20052;-69
2022/09/20 08:25:47;;;;;;;2.28;0.73;;;12.90;99.90;;;;;;5086145;28;20055;-69
2022/09/20 08:28:12;;;;;;;1.50;0.73;;;12.90;99.90;;;;;;5095045;28;20254;-69
2022/09/20 08:30:38;;;;;;;6.72;1.13;;;13.00;99.90;;;;;;5088487;28;20900;-70
2022/09/20 08:33:05;;;;;;;3.92;1.23;;;13.00;99.90;;;;;;5090848;28;20047;-68
2022/09/20 08:35:34;;;;;;;2.50;0.85;;;13.00;99.90;;;;;;5103671;28;20044;-69
2022/09/20 08:38:01;;;;;;;3.63;1.13;;;13.00;99.90;;;;;;5094923;28;20051;-69
2022/09/20 08:40:29;;;;;;;2.17;1.02;;;13.10;99.90;;;;;;5091576;28;20110;-69
2022/09/20 08:42:56;;;;;;;3.30;0.93;;;13.20;99.90;;;;;;5096055;28;20048;-69
2022/09/20 08:45:24;;;;;;;2.88;0.70;;;13.20;99.90;;;;;;5095503;27;20098;-70
2022/09/20 08:47:58;;;;;;;5.55;1.00;;;13.30;99.90;;;;;;5081569;28;20040;-70
2022/09/20 08:50:23;;;;;;;4.80;1.20;;;13.30;99.90;;;;;;5090147;28;20051;-70
2022/09/20 08:52:54;;;;;;;5.40;1.10;;;13.30;99.90;;;;;;5095321;28;20060;-69
2022/09/20 08:55:30;;;;;;;2.88;1.00;;;13.30;99.90;;;;;;5100204;28;20051;-69
2022/09/20 08:57:57;;;;;;;3.25;1.05;;;13.30;99.90;;;;;;5095833;28;20044;-71
2022/09/20 09:00:28;;;;;;;3.90;0.90;;;13.30;99.90;;;;;;5088114;27;20047;-68
2022/09/20 09:02:56;;;;;;;3.83;0.98;;;13.30;99.90;;;;;;5097894;28;20419;-71
2022/09/20 09:05:30;;;;;;;6.38;1.10;;;13.20;99.90;;;;;;5101977;27;20530;-70
2022/09/20 09:07:59;;;;;;;3.85;0.90;;;13.30;99.90;;;;;;5100116;28;20051;-70
2022/09/20 09:10:33;;;;;;;4.03;1.17;;;13.30;99.90;;;;;;5088144;28;20140;-70
2022/09/20 09:12:59;;;;;;;4.05;1.02;;;13.30;99.90;;;;;;5086761;28;20088;-69
2022/09/20 09:15:31;;;;;;;6.60;1.30;;;13.40;99.90;;;;;;5089494;27;20063;-70
2022/09/20 09:17:57;;;;;;;2.83;0.80;;;13.40;99.90;;;;;;5095439;28;20067;-70
2022/09/20 09:20:23;;;;;;;4.30;1.30;;;13.60;99.90;;;;;;5088061;28;20085;-70
2022/09/20 09:23:00;;;;;;;7.43;1.55;;;13.60;99.90;;;;;;5095215;28;20059;-70
2022/09/20 09:25:36;;;;;;;6.70;1.15;;;13.70;99.90;;;;;;5093560;28;20048;-70
2022/09/20 09:28:06;;;;;;;4.72;1.25;;;13.80;99.90;;;;;;5090281;28;20044;-69
2022/09/20 09:30:39;;;;;;;5.70;1.00;;;13.90;99.90;;;;;;5082136;28;20047;-70
2022/09/20 09:33:26;;;;;;;4.40;1.08;;;14.00;99.90;;;;;;5076777;28;20039;-70
2022/09/20 09:35:58;;;;;;;4.53;0.80;;;14.20;99.90;;;;;;5082901;28;20048;-69
2022/09/20 09:38:33;;;;;;;4.68;0.90;;;14.20;99.90;;;;;;5064948;28;20382;-70
2022/09/20 09:41:01;;;;;;;5.63;1.15;;;14.30;99.90;;;;;;5092779;28;20400;-70
2022/09/20 09:43:34;;;;;;;3.85;1.00;;;14.40;99.90;;;;;;5114556;27;20044;-70
2022/09/20 09:46:16;;;;;;;2.55;0.90;;;14.50;99.90;;;;;;5087840;28;20378;-70
2022/09/20 09:48:48;;;;;;;7.35;1.25;;;14.50;99.90;;;;;;5072399;28;20144;-69
2022/09/20 09:51:19;;;;;;;7.72;1.10;;;14.60;99.90;;;;;;5088123;28;20044;-70
2022/09/20 09:53:47;;;;;;;6.90;0.90;;;14.60;99.90;;;;;;5092163;28;20052;-70
2022/09/20 09:56:59;;;;;;;4.28;1.02;;;14.70;99.90;;;;;;5084604;28;20055;-70
2022/09/20 09:59:51;;;;;;;5.28;1.00;;;14.80;99.90;;;;;;5042714;28;20049;-70
2022/09/20 10:02:43;;;;;;;3.22;0.98;;;15.10;99.90;;;;;;5026070;28;20094;-70
2022/09/20 10:05:36;;;;;;;5.30;0.82;;;15.30;99.90;;;;;;5038182;28;20052;-69
2022/09/20 10:08:14;;;;;;;6.72;1.30;;;15.40;99.90;;;;;;5038674;28;20207;-70
2022/09/20 10:10:59;;;;;;;7.43;1.27;;;15.30;99.90;;;;;;5046983;28;20106;-68
2022/09/20 10:13:50;;;;;;;3.42;1.00;;;15.20;99.90;;;;;;5056210;28;20055;-68
2022/09/20 10:16:34;;;;;;;3.65;0.80;;;15.10;99.90;;;;;;5047111;28;20044;-68
2022/09/20 10:19:25;;;;;;;4.40;1.02;;;14.90;99.90;;;;;;5054686;28;20123;-69
2022/09/20 10:22:02;;;;;;;5.65;0.95;;;14.90;99.90;;;;;;5028973;28;20211;-69
2022/09/20 10:24:58;;;;;;;5.28;1.02;;;14.80;99.90;;;;;;5043549;28;20037;-69
2022/09/20 10:27:48;;;;;;;5.57;0.80;;;14.80;99.90;;;;;;5054963;28;20040;-69
2022/09/20 10:30:18;;;;;;;6.65;1.00;;;14.80;99.90;;;;;;5046105;28;20049;-70
2022/09/20 10:33:12;;;;;;;4.53;1.02;;;14.90;99.90;;;;;;5072683;28;20060;-70
2022/09/20 10:36:06;;;;;;;4.63;0.88;;;14.90;99.90;;;;;;5080013;28;20078;-67
2022/09/20 10:38:41;;;;;;;2.30;0.93;;;15.00;99.90;;;;;;5092205;28;20051;-69
2022/09/20 10:44:17;;;;;;;4.50;0.80;;;15.10;99.90;;;;;;5106675;28;20036;-68
2022/09/20 10:47:05;;;;;;;5.97;1.20;;;15.20;99.90;;;;;;5093296;28;20096;-74
2022/09/20 10:49:42;;;;;;;3.42;1.30;;;15.30;99.90;;;;;;5083792;28;20044;-70
2022/09/20 10:52:38;;;;;;;4.70;1.00;;;15.50;99.90;;;;;;5101255;28;20036;-69
2022/09/20 10:55:25;;;;;;;7.38;1.23;;;15.70;99.90;;;;;;5080072;28;20072;-69
2022/09/20 10:58:05;;;;;;;5.60;1.00;;;15.70;99.90;;;;;;5090273;28;20043;-70
2022/09/20 11:00:49;;;;;;;3.72;1.00;;;15.80;99.90;;;;;;5087977;28;20048;-70
2022/09/20 11:04:16;;;;;;;5.20;1.10;;;15.80;99.90;;;;;;5097903;28;20044;-70
2022/09/20 11:07:01;;;;;;;3.60;0.90;;;15.70;99.90;;;;;;4990169;28;20212;-70
2022/09/20 11:09:34;;;;;;;4.20;1.00;;;15.60;99.90;;;;;;5009970;28;20600;-70
2022/09/20 11:12:09;;;;;;;4.78;0.98;;;15.60;99.90;;;;;;5032260;28;21278;-70
2022/09/20 11:14:42;;;;;;;5.70;1.77;;;15.70;99.90;;;;;;4990178;28;20313;-69
2022/09/20 11:17:19;;;;;;;3.80;1.13;;;15.90;99.90;;;;;;5025641;28;20096;-70
2022/09/20 11:20:19;;;;;;;5.03;0.98;;;16.10;99.90;;;;;;5010449;28;20064;-69
2022/09/20 11:23:09;;;;;;;3.17;0.93;;;16.40;99.90;;;;;;4930670;29;20062;-70
2022/09/20 11:25:37;;;;;;;;;;;16.60;99.90;;;;;;4934929;29;20059;-70
2022/09/20 11:28:18;;;;;;;1.95;1.33;;;16.60;99.90;;;;;;4946891;29;19922;-70
2022/09/20 11:31:17;;;;;;;2.78;1.08;;;16.60;99.90;;;;;;4928306;29;20151;-69
2022/09/20 11:33:46;;;;;;;1.83;1.00;;;16.50;99.90;;;;;;4952119;28;20551;-69
2022/09/20 11:36:22;;;;;;;6.20;1.65;;;16.40;99.90;;;;;;4947294;29;20063;-69
2022/09/20 11:39:21;;;;;;;5.85;1.52;;;16.40;99.90;;;;;;4957692;29;20118;-70
2022/09/20 11:41:50;;;;;;;4.40;1.48;;;16.50;99.90;;;;;;4911278;29;20067;-70
2022/09/20 11:44:18;;;;;;;5.70;1.40;;;16.70;99.90;;;;;;4937564;29;20075;-69
2022/09/20 11:47:03;;;;;;;4.18;1.00;;;16.80;99.90;;;;;;4910989;29;20084;-70
2022/09/20 11:50:06;;;;;;;4.32;1.40;;;17.00;99.90;;;;;;4920200;29;20147;-69
2022/09/20 11:52:52;;;;;;;4.38;1.38;;;17.20;99.90;;;;;;4904485;29;20091;-69
2022/09/20 11:55:21;;;;;;;5.95;1.55;;;17.30;99.90;;;;;;4896616;29;20060;-70
2022/09/20 11:58:06;;;;;;;4.97;1.30;;;17.40;99.90;;;;;;4920750;29;20118;-69
2022/09/20 12:00:36;;;;;;;6.13;1.35;;;17.30;99.90;;;;;;4995493;28;20407;-70
2022/09/20 12:03:08;;;;;;;4.97;1.10;;;17.20;99.90;;;;;;5027804;28;20076;-70
2022/09/20 12:05:36;;;;;;;4.78;1.00;;;17.30;99.90;;;;;;5025667;28;20053;-70
2022/09/20 12:08:28;;;;;;;6.47;1.48;;;17.40;99.90;;;;;;5010375;28;20046;-70
2022/09/20 12:10:58;;;;;;;6.05;1.25;;;17.60;99.90;;;;;;5009478;28;20073;-70
2022/09/20 12:13:25;;;;;;;;;;;17.60;99.90;;;;;;5001509;28;20557;-70
2022/09/20 12:16:00;;;;;;;6.10;1.23;;;17.60;99.90;;;;;;5007166;28;19936;-70
2022/09/20 12:18:38;;;;;;;3.95;1.52;;;17.60;99.90;;;;;;5046091;28;20110;-70
2022/09/20 12:21:15;;;;;;;5.43;1.40;;;17.60;99.90;;;;;;5057461;28;20044;-70
2022/09/20 12:24:09;;;;;;;4.20;1.20;;;17.70;99.90;;;;;;5096162;28;20044;-70
2022/09/20 12:26:40;;;;;;;4.93;1.20;;;17.80;99.90;;;;;;5055259;28;20068;-71
2022/09/20 12:29:33;;;;;;;5.63;1.40;;;17.70;99.90;;;;;;5094656;28;20812;-70
2022/09/20 12:32:22;;;;;;;5.90;1.25;;;17.60;99.90;;;;;;5045764;28;20063;-70
2022/09/20 12:34:48;;;;;;;4.10;1.20;;;17.60;99.90;;;;;;5052302;28;20094;-70
2022/09/20 12:37:23;;;;;;;6.50;1.63;;;17.50;99.90;;;;;;5085877;28;20048;-70
2022/09/20 12:39:53;;;;;;;6.00;1.10;;;17.40;99.90;;;;;;5067555;28;20056;-70
2022/09/20 12:42:37;;;;;;;5.85;1.27;;;17.30;99.90;;;;;;5049503;28;20053;-70
2022/09/20 12:45:25;;;;;;;3.67;1.10;;;17.30;99.90;;;;;;5040970;28;20062;-70
2022/09/20 12:47:55;;;;;;;4.30;1.50;;;17.10;99.90;;;;;;5088441;28;20048;-70
2022/09/20 12:53:13;;;;;;;4.70;1.10;;;17.50;99.90;;;;;;5098403;28;20055;-70
2022/09/20 12:56:00;;;;;;;5.43;1.05;;;17.70;99.90;;;;;;5095631;28;20054;-70
2022/09/20 12:58:47;;;;;;;5.10;1.30;;;18.00;99.90;;;;;;5103567;28;20062;-70
2022/09/20 13:01:12;;;;;;;7.07;1.65;;;18.30;99.80;;;;;;5089862;28;20142;-70
2022/09/20 13:03:44;;;;;;;5.00;1.30;;;18.80;99.90;;;;;;5096584;28;20091;-70
2022/09/20 13:06:22;;;;;;;3.38;1.17;;;19.30;99.00;;;;;;5089845;28;20051;-69
2022/09/20 13:08:59;;;;;;;3.35;1.00;;;19.90;98.30;;;;;;5080544;28;20044;-67
2022/09/20 13:11:38;;;;;;;6.32;1.20;;;20.10;96.50;;;;;;5076934;28;20143;-71
2022/09/20 13:14:27;;;;;;;4.93;1.20;;;20.70;97.40;;;;;;5076667;28;20047;-70
2022/09/20 13:17:12;;;;;;;3.30;1.08;;;21.60;97.80;;;;;;5088644;28;20059;-71
2022/09/20 13:19:45;;;;;;;5.18;1.33;;;22.30;98.00;;;;;;5079814;28;20047;-70
2022/09/20 13:22:21;;;;;;;2.55;0.93;;;21.70;96.30;;;;;;5086223;28;20051;-70
2022/09/20 13:24:51;;;;;;;5.00;1.10;;;21.10;97.10;;;;;;5096940;28;20044;-70
2022/09/20 13:27:26;;;;;;;6.47;1.27;;;20.40;97.80;;;;;;5052622;28;20056;-71
2022/09/20 13:29:52;;;;;;;1.83;1.00;;;19.80;97.20;;;;;;5094116;28;20055;-73
2022/09/20 13:32:26;;;;;;;2.25;1.20;;;19.40;98.60;;;;;;5093061;28;20056;-71
2022/09/20 13:35:20;;;;;;;5.88;1.10;;;19.20;98.80;;;;;;5096262;28;20067;-71
2022/09/20 13:37:55;;;;;;;2.65;1.00;;;19.40;99.90;;;;;;5070457;28;20056;-72
2022/09/20 13:40:42;;;;;;;5.70;1.15;;;20.40;99.40;;;;;;5072837;28;20428;-71
2022/09/20 13:43:42;;;;;;;3.20;1.05;;;21.20;97.40;;;;;;5096628;28;20072;-70
2022/09/20 13:46:20;;;;;;;4.32;0.98;;;21.40;97.30;;;;;;5090260;28;20054;-70
2022/09/20 13:48:51;;;;;;;3.55;0.88;;;21.20;96.80;;;;;;5088679;28;20063;-70
2022/09/20 13:51:26;;;;;;;3.47;1.10;;;20.90;96.60;;;;;;5089415;28;20117;-71
2022/09/20 13:53:52;;;;;;;4.10;1.30;;;20.60;97.50;;;;;;5078897;28;20547;-70
2022/09/20 13:56:26;;;;;;;5.45;1.23;;;20.40;98.60;;;;;;5089509;28;20082;-72
2022/09/20 13:58:52;;;;;;;8.68;1.55;;;20.90;98.80;;;;;;5096067;28;20142;-72
2022/09/20 14:01:31;;;;;;;4.25;0.93;;;22.10;98.60;;;;;;5089230;28;20059;-72